Data for 04/16/2015

Time Sea-Level Adjusted Pressure Absolute Pressure Temperature Relative Humidity Dew Point   
(mb) (inHg) (mb) (inHg) (C) (F) (%) (C) (F)
00:05 1025 30.27 854 25.22 -3.4 25.9 86 -5.4 22.2
00:10 1025 30.27 854 25.22 -3.7 25.4 87 -5.6 22
00:15 1025 30.27 854 25.22 -3.5 25.8 86 -5.5 22.1
00:20 1025 30.27 854 25.22 -3.3 26.1 86 -5.3 22.4
00:25 1025 30.27 854 25.22 -3.3 26 86 -5.4 22.3
00:30 1025 30.27 854 25.22 -3.2 26.2 85 -5.3 22.4
00:35 1025 30.27 854 25.22 -3.1 26.4 84 -5.4 22.3
00:40 1025 30.27 854 25.22 -3.1 26.3 84 -5.4 22.3
00:45 1025 30.27 854 25.22 -3.5 25.7 85 -5.7 21.7
00:50 1025 30.27 854 25.22 -3.5 25.6 84 -5.9 21.5
00:55 1025 30.27 854 25.22 -3.5 25.8 84 -5.8 21.6
01:00 1025 30.27 854 25.22 -3.3 26.1 84 -5.7 21.8
01:05 1025 30.27 854 25.22 -3.1 26.3 83 -5.7 21.8
01:10 1025 30.27 854 25.22 -3.4 25.9 84 -5.7 21.7
01:15 1025 30.27 854 25.22 -3.4 25.9 84 -5.8 21.6
01:20 1025 30.27 854 25.22 -3.5 25.7 85 -5.8 21.6
01:25 1025 30.27 854 25.22 -3.6 25.5 84 -6 21.2
01:30 1025 30.27 854 25.22 -4 24.8 86 -6 21.1
01:35 1025 30.27 854 25.22 -4 24.7 85 -6.2 20.9
01:40 1025 30.27 854 25.22 -4.1 24.7 84 -6.3 20.6
01:45 1025 30.27 854 25.22 -4.2 24.4 85 -6.4 20.5
01:50 1025 30.27 854 25.22 -4.1 24.7 85 -6.3 20.7
01:55 1025 30.27 854 25.22 -4.1 24.6 85 -6.2 20.8
02:00 1025 30.27 854 25.22 -4.3 24.2 85 -6.4 20.5
02:05 1025 30.27 854 25.22 -4.5 23.9 85 -6.6 20.1
02:10 1025 30.27 854 25.22 -4.7 23.6 86 -6.6 20.1
02:15 1025 30.27 854 25.22 -4.7 23.5 86 -6.7 20
02:20 1025 30.27 854 25.22 -4.6 23.7 87 -6.5 20.3
02:25 1025 30.27 854 25.22 -4.4 24.1 86 -6.4 20.5
02:30 1025 30.27 854 25.22 -4.5 23.9 86 -6.5 20.3
02:35 1025 30.27 854 25.22 -4.6 23.7 87 -6.5 20.3
02:40 1025 30.27 854 25.22 -4.6 23.7 86 -6.5 20.2
02:45 1025 30.27 854 25.22 -4.6 23.8 86 -6.5 20.3
02:50 1025 30.27 854 25.22 -4.5 23.8 86 -6.6 20.1
02:55 1025 30.27 854 25.22 -4.6 23.8 85 -6.7 19.9
03:00 1025 30.27 854 25.22 -4.6 23.8 85 -6.7 20
03:05 1025 30.27 854 25.22 -4.4 24 85 -6.5 20.2
03:10 1025 30.27 854 25.22 -4.4 24.2 85 -6.5 20.2
03:15 1025 30.27 854 25.22 -4.4 24.1 86 -6.5 20.3
03:20 1025 30.27 854 25.22 -4.4 24.1 85 -6.6 20.1
03:25 1025 30.27 854 25.22 -4.4 24 85 -6.6 20.1
03:30 1025 30.27 854 25.22 -4.5 24 85 -6.6 20
03:35 1025 30.27 854 25.22 -4.5 23.9 85 -6.7 19.9
03:40 1025 30.27 855 25.25 -4.5 24 85 -6.7 20
03:45 1025 30.27 855 25.25 -4.3 24.2 84 -6.6 20.1
03:50 1025 30.27 855 25.25 -4.4 24 85 -6.6 20.1
03:55 1025 30.27 855 25.25 -4.5 23.9 85 -6.7 20
04:00 1025 30.27 854 25.22 -4.3 24.2 83 -6.7 19.9
04:05 1025 30.27 854 25.22 -4.4 24.1 84 -6.7 19.9
04:10 1025 30.27 855 25.25 -4.5 24 84 -6.7 19.9
04:15 1025 30.27 855 25.25 -4.6 23.8 85 -6.7 19.9
04:20 1025 30.27 855 25.25 -4.4 24.2 84 -6.7 20
04:25 1025 30.27 855 25.25 -4.2 24.4 84 -6.5 20.2
04:30 1025 30.27 854 25.22 -4.2 24.4 83 -6.6 20.1
04:35 1025 30.27 854 25.22 -4.3 24.3 84 -6.6 20.2
04:40 1025 30.27 855 25.25 -4.3 24.2 84 -6.7 20
04:45 1025 30.27 855 25.25 -4.2 24.4 83 -6.6 20.1
04:50 1025 30.27 855 25.25 -4.4 24.1 84 -6.7 19.9
04:55 1025 30.27 855 25.25 -4.6 23.7 85 -6.7 19.9
05:00 1025 30.27 855 25.25 -4.5 24 84 -6.7 19.9
05:05 1025 30.27 855 25.25 -4.6 23.8 85 -6.8 19.8
05:10 1025 30.27 855 25.25 -4.6 23.8 84 -6.9 19.6
05:15 1026 30.3 855 25.25 -4.8 23.3 85 -7 19.4
05:20 1026 30.3 855 25.25 -4.8 23.4 85 -7 19.5
05:25 1026 30.3 855 25.25 -4.7 23.6 84 -6.9 19.5
05:30 1026 30.3 855 25.25 -4.8 23.4 85 -7 19.4
05:35 1026 30.3 855 25.25 -5 23 86 -7.1 19.3
05:40 1026 30.3 855 25.25 -5.2 22.7 86 -7.1 19.2
05:45 1026 30.3 855 25.25 -5.1 22.9 86 -7.1 19.2
05:50 1026 30.3 855 25.25 -4.7 23.5 85 -6.9 19.5
05:55 1026 30.3 855 25.25 -4.4 24 84 -6.7 19.9
06:00 1026 30.3 855 25.25 -4.4 24 83 -6.8 19.7
06:05 1026 30.3 855 25.25 -4.4 24.1 83 -6.8 19.8
06:10 1026 30.3 855 25.25 -4.4 24.2 83 -6.9 19.6
06:15 1026 30.3 855 25.25 -4.4 24.1 82 -7.1 19.3
06:20 1026 30.3 855 25.25 -4.4 24.1 82 -7 19.5
06:25 1026 30.3 855 25.25 -4.1 24.6 81 -6.9 19.7
06:30 1026 30.3 855 25.25 -4 24.9 81 -6.8 19.7
06:35 1026 30.3 855 25.25 -3.9 25.1 80 -6.9 19.6
06:40 1026 30.3 855 25.25 -3.8 25.2 79 -6.9 19.6
06:45 1026 30.3 855 25.25 -3.5 25.6 78 -6.8 19.7
06:50 1026 30.3 855 25.25 -3.3 26.1 77 -6.9 19.7
06:55 1026 30.3 855 25.25 -3 26.7 76 -6.6 20.1
07:00 1026 30.3 855 25.25 -3 26.7 77 -6.5 20.3
07:05 1026 30.3 856 25.28 -2.3 27.9 73 -6.5 20.3
07:10 1026 30.3 856 25.28 -1.8 28.8 72 -6.2 20.9
07:15 1026 30.3 856 25.28 -1.9 28.6 73 -6.1 21
07:20 1026 30.3 856 25.28 -2.2 28.1 74 -6.2 20.8
07:25 1026 30.3 856 25.28 -1.9 28.7 73 -6.1 21.1
07:30 1026 30.3 856 25.28 -1.6 29.2 72 -6 21.2
07:35 1027 30.33 856 25.28 -1.4 29.4 71 -6 21.2
07:40 1027 30.33 856 25.28 -0.4 31.3 68 -5.6 21.8
07:45 1027 30.33 856 25.28 -0.4 31.2 69 -5.5 22.2
07:50 1027 30.33 856 25.28 -0.7 30.7 71 -5.4 22.4
07:55 1027 30.33 856 25.28 -0.4 31.3 70 -5.3 22.5
08:00 1027 30.33 856 25.28 0 32 67 -5.3 22.4
08:05 1027 30.33 856 25.28 0.3 32.5 67 -5.1 22.8
08:10 1027 30.33 856 25.28 1 33.7 64 -5.1 22.9
08:15 1027 30.33 856 25.28 1 33.7 64 -5.1 22.8
08:20 1027 30.33 856 25.28 1.1 33.9 63 -5.2 22.6
08:25 1027 30.33 856 25.28 1 33.8 65 -4.9 23.2
08:30 1027 30.33 856 25.28 1.2 34.2 64 -4.9 23.2
08:35 1027 30.33 856 25.28 1.9 35.4 61 -4.8 23.4
08:40 1027 30.33 856 25.28 2.3 36.2 60 -4.6 23.7
08:45 1027 30.33 856 25.28 2.7 36.9 59 -4.4 24
08:50 1027 30.33 856 25.28 2.7 36.8 60 -4.4 24.1
08:55 1027 30.33 856 25.28 2.9 37.2 58 -4.5 23.9
09:00 1027 30.33 856 25.28 2.7 36.8 59 -4.6 23.7
09:05 1027 30.33 856 25.28 3.2 37.8 58 -4.3 24.2
09:10 1027 30.33 856 25.28 3.3 37.9 56 -4.6 23.6
09:15 1027 30.33 856 25.28 3.3 38 57 -4.5 23.9
09:20 1027 30.33 856 25.28 3.5 38.2 57 -4.3 24.3
09:25 1027 30.33 856 25.28 3.5 38.4 55 -4.6 23.7
09:30 1027 30.33 856 25.28 4 39.1 53 -4.7 23.5
09:35 1027 30.33 856 25.28 3.9 39.1 53 -4.7 23.5
09:40 1027 30.33 856 25.28 3.1 37.6 55 -5.1 22.9
09:45 1027 30.33 856 25.28 2.7 36.8 55 -5.6 22
09:50 1027 30.33 856 25.28 2.7 36.8 55 -5.4 22.2
09:55 1027 30.33 856 25.28 3.2 37.8 53 -5.4 22.3
10:00 1027 30.33 856 25.28 3.6 38.4 52 -5.3 22.5
10:05 1027 30.33 856 25.28 4 39.2 53 -4.7 23.5
10:10 1027 30.33 856 25.28 4.3 39.8 51 -5 23
10:15 1027 30.33 856 25.28 4.5 40.1 52 -4.6 23.8
10:20 1027 30.33 856 25.28 4.8 40.6 52 -4.2 24.4
10:25 1027 30.33 856 25.28 4.8 40.7 51 -4.5 24
10:30 1027 30.33 856 25.28 3.9 39.1 56 -4 24.8
10:35 1027 30.33 856 25.28 4.1 39.4 53 -4.6 23.7
10:40 1027 30.33 856 25.28 5 41 52 -4.1 24.7
10:45 1027 30.33 856 25.28 5.2 41.3 53 -3.6 25.5
10:50 1026 30.3 856 25.28 5.3 41.6 52 -3.8 25.2
10:55 1026 30.3 856 25.28 5.5 41.9 50 -4 24.7
11:00 1026 30.3 856 25.28 5.6 42.1 50 -3.9 25
11:05 1026 30.3 856 25.28 5.9 42.7 49 -4 24.8
11:10 1026 30.3 856 25.28 5.9 42.6 48 -4.2 24.5
11:15 1026 30.3 856 25.28 5.9 42.6 47 -4.5 23.9
11:20 1026 30.3 855 25.25 5.8 42.4 49 -4.1 24.6
11:25 1026 30.3 855 25.25 5.3 41.6 50 -4.2 24.5
11:30 1026 30.3 855 25.25 5.4 41.7 48 -4.7 23.5
11:35 1026 30.3 855 25.25 6 42.7 47 -4.6 23.7
11:40 1026 30.3 855 25.25 5.8 42.4 48 -4.3 24.3
11:45 1026 30.3 855 25.25 6.1 43 47 -4.4 24
11:50 1026 30.3 855 25.25 6.1 43 46 -4.5 23.9
11:55 1026 30.3 855 25.25 6.1 42.9 47 -4.5 23.9
12:00 1026 30.3 855 25.25 5.6 42.1 48 -4.5 23.8
12:05 1026 30.3 855 25.25 5.3 41.5 49 -4.6 23.6
12:10 1026 30.3 855 25.25 4.9 40.7 50 -4.6 23.7
12:15 1026 30.3 855 25.25 5.7 42.2 47 -4.8 23.4
12:20 1026 30.3 855 25.25 5.7 42.3 48 -4.4 24.1
12:25 1026 30.3 855 25.25 4.8 40.6 50 -4.7 23.5
12:30 1026 30.3 855 25.25 5.4 41.7 48 -4.7 23.6
12:35 1026 30.3 855 25.25 5.5 41.8 48 -4.7 23.5
12:40 1025 30.27 855 25.25 5.5 41.9 45 -5.4 22.3
12:45 1025 30.27 855 25.25 5.1 41.2 48 -5 23
12:50 1025 30.27 855 25.25 4.8 40.6 48 -5.3 22.4
12:55 1025 30.27 855 25.25 4.9 40.9 47 -5.3 22.4
13:00 1025 30.27 854 25.22 5.3 41.6 47 -5 23
13:05 1025 30.27 854 25.22 5.5 41.9 47 -5 23
13:10 1025 30.27 854 25.22 5.2 41.4 46 -5.6 22
13:15 1025 30.27 854 25.22 5.8 42.5 46 -4.8 23.3
13:20 1025 30.27 854 25.22 6.5 43.7 45 -4.5 23.9
13:25 1025 30.27 854 25.22 7.1 44.8 43 -4.5 23.9
13:30 1025 30.27 854 25.22 7.3 45.1 42 -4.8 23.4
13:35 1025 30.27 854 25.22 7.2 44.9 44 -4.2 24.4
13:40 1025 30.27 854 25.22 7.4 45.3 40 -5.2 22.6
13:45 1025 30.27 854 25.22 7.4 45.3 42 -4.6 23.8
13:50 1025 30.27 854 25.22 7.2 44.9 44 -4.2 24.5
13:55 1025 30.27 854 25.22 6.6 44 43 -5 23
14:00 1025 30.27 854 25.22 6.2 43.1 44 -5.3 22.5
14:05 1025 30.27 854 25.22 6 42.8 44 -5.2 22.6
14:10 1025 30.27 854 25.22 6.3 43.3 43 -5.3 22.4
14:15 1025 30.27 854 25.22 7.1 44.7 42 -5 22.9
14:20 1025 30.27 854 25.22 6.7 44.1 43 -5.1 22.9
14:25 1025 30.27 854 25.22 7 44.6 42 -4.9 23.1
14:30 1025 30.27 854 25.22 7.2 45 41 -5 23
14:35 1025 30.27 854 25.22 7.5 45.5 40 -5.1 22.8
14:40 1025 30.27 854 25.22 7.2 45 41 -5 22.9
14:45 1025 30.27 854 25.22 7.9 46.3 39 -5.1 22.8
14:50 1025 30.27 854 25.22 8.4 47 39 -4.9 23.2
14:55 1025 30.27 854 25.22 8.7 47.7 38 -4.8 23.3
15:00 1025 30.27 854 25.22 8.8 47.8 38 -4.8 23.4
15:05 1025 30.27 854 25.22 7.9 46.2 39 -5.2 22.7
15:10 1025 30.27 854 25.22 7.4 45.2 41 -5 23
15:15 1025 30.27 854 25.22 7.5 45.5 39 -5.6 21.9
15:20 1025 30.27 854 25.22 7.5 45.5 40 -5.2 22.6
15:25 1024 30.24 854 25.22 7.3 45.1 41 -5.2 22.6
15:30 1024 30.24 854 25.22 7.2 44.9 39 -5.7 21.8
15:35 1024 30.24 853 25.19 7.1 44.8 40 -5.5 22
15:40 1024 30.24 853 25.19 7 44.7 41 -5.3 22.4
15:45 1024 30.24 853 25.19 7 44.6 40 -5.8 21.6
15:50 1024 30.24 853 25.19 7.2 45 40 -5.6 21.9
15:55 1024 30.24 853 25.19 6.9 44.3 39 -6.2 20.8
16:00 1024 30.24 853 25.19 6.9 44.3 40 -5.8 21.6
16:05 1024 30.24 853 25.19 6.6 43.8 41 -5.8 21.5
16:10 1024 30.24 853 25.19 6.6 43.9 41 -5.7 21.7
16:15 1024 30.24 853 25.19 6.8 44.3 39 -6 21.1
16:20 1024 30.24 853 25.19 6.9 44.4 40 -5.6 21.9
16:25 1024 30.24 853 25.19 6.9 44.4 41 -5.4 22.3
16:30 1024 30.24 853 25.19 6.8 44.3 39 -6 21.2
16:35 1024 30.24 853 25.19 6.7 44.1 40 -5.9 21.4
16:40 1024 30.24 853 25.19 6.7 44.1 40 -6.1 21
16:45 1024 30.24 853 25.19 6.7 44.1 40 -6 21.3
16:50 1024 30.24 853 25.19 6.8 44.2 41 -5.6 21.9
16:55 1024 30.24 853 25.19 6.8 44.3 41 -5.6 22
17:00 1024 30.24 853 25.19 6.8 44.2 42 -5.2 22.6
17:05 1024 30.24 853 25.19 6.7 44.1 41 -5.6 21.8
17:10 1024 30.24 853 25.19 7 44.5 39 -5.9 21.3
17:15 1024 30.24 853 25.19 7.1 44.8 40 -5.7 21.7
17:20 1024 30.24 853 25.19 7 44.6 39 -5.9 21.4
17:25 1024 30.24 853 25.19 7 44.6 39 -5.9 21.3
17:30 1024 30.24 853 25.19 6.8 44.2 40 -5.8 21.6
17:35 1024 30.24 853 25.19 6.7 44.1 40 -5.8 21.6
17:40 1024 30.24 853 25.19 6.6 43.9 41 -5.7 21.7
17:45 1024 30.24 853 25.19 6.8 44.2 40 -5.7 21.7
17:50 1024 30.24 853 25.19 6.8 44.2 40 -5.9 21.3
17:55 1024 30.24 853 25.19 6.8 44.3 40 -5.9 21.3
18:00 1024 30.24 853 25.19 6.8 44.3 39 -6 21.1
18:05 1024 30.24 853 25.19 6.9 44.3 39 -6.1 21
18:10 1023 30.21 853 25.19 7 44.5 39 -5.9 21.4
18:15 1023 30.21 853 25.19 7 44.6 37 -6.6 20.1
18:20 1023 30.21 853 25.19 7 44.5 40 -5.9 21.4
18:25 1023 30.21 853 25.19 7.1 44.7 40 -5.7 21.7
18:30 1023 30.21 853 25.19 6.9 44.5 39 -6 21.1
18:35 1023 30.21 853 25.19 6.9 44.4 41 -5.4 22.3
18:40 1023 30.21 853 25.19 6.9 44.4 44 -4.5 23.9
18:45 1023 30.21 853 25.19 6.7 44 47 -4 24.8
18:50 1023 30.21 853 25.19 6.5 43.7 52 -2.7 27.2
18:55 1024 30.24 853 25.19 6.1 43.1 56 -1.9 28.5
19:00 1024 30.24 853 25.19 5.8 42.5 58 -1.8 28.8
19:05 1024 30.24 853 25.19 5.7 42.3 59 -1.6 29.1
19:10 1024 30.24 853 25.19 5.5 41.9 62 -1.2 29.8
19:15 1024 30.24 853 25.19 5.1 41.2 65 -0.8 30.5
19:20 1024 30.24 853 25.19 4.6 40.3 65 -1.4 29.4
19:25 1024 30.24 853 25.19 4.4 40 62 -2.2 28.1
19:30 1024 30.24 853 25.19 4.6 40.2 61 -2.4 27.7
19:35 1024 30.24 853 25.19 4.5 40.1 66 -1.3 29.6
19:40 1024 30.24 853 25.19 4.2 39.5 65 -1.8 28.7
19:45 1024 30.24 853 25.19 3.9 39 66 -1.8 28.8
19:50 1024 30.24 853 25.19 3.8 38.8 70 -1.2 29.8
19:55 1024 30.24 853 25.19 3.4 38.1 72 -1.1 30
20:00 1024 30.24 853 25.19 3 37.4 75 -1 30.3
20:05 1024 30.24 853 25.19 2.6 36.7 76 -1.2 29.8
20:10 1024 30.24 853 25.19 2.4 36.4 75 -1.5 29.3
20:15 1024 30.24 853 25.19 2.5 36.5 76 -1.3 29.7
20:20 1024 30.24 853 25.19 2.5 36.4 75 -1.5 29.3
20:25 1024 30.24 853 25.19 2.6 36.7 75 -1.4 29.5
20:30 1024 30.24 853 25.19 2.7 36.8 73 -1.6 29.1
20:35 1024 30.24 853 25.19 2.7 36.9 73 -1.6 29.1
20:40 1024 30.24 853 25.19 2.6 36.7 73 -1.7 28.9
20:45 1024 30.24 853 25.19 2.4 36.4 74 -1.8 28.8
20:50 1024 30.24 853 25.19 2.5 36.5 73 -1.9 28.5
20:55 1024 30.24 853 25.19 2.7 36.9 71 -2 28.5
21:00 1024 30.24 853 25.19 2.6 36.7 72 -1.8 28.7
21:05 1024 30.24 853 25.19 2.4 36.3 72 -2.1 28.3
21:10 1024 30.24 853 25.19 2.4 36.3 72 -2.1 28.2
21:15 1024 30.24 853 25.19 2.3 36.2 73 -2.1 28.3
21:20 1024 30.24 853 25.19 2.3 36.2 72 -2.2 28.1
21:25 1024 30.24 853 25.19 2.3 36.1 72 -2.2 28
21:30 1024 30.24 853 25.19 2.3 36.1 72 -2.4 27.8
21:35 1024 30.24 853 25.19 2.3 36.1 71 -2.3 27.8
21:40 1024 30.24 853 25.19 2.2 36 72 -2.2 28
21:45 1024 30.24 853 25.19 2.1 35.8 73 -2.3 27.9
21:50 1024 30.24 853 25.19 2.2 35.9 72 -2.4 27.7
21:55 1024 30.24 853 25.19 2.3 36.2 72 -2.3 27.9
22:00 1024 30.24 853 25.19 2.3 36.1 72 -2.3 27.9
22:05 1024 30.24 853 25.19 2.2 35.9 72 -2.4 27.7
22:10 1024 30.24 853 25.19 2.2 35.9 71 -2.5 27.5
22:15 1024 30.24 853 25.19 2 35.6 71 -2.7 27.2
22:20 1024 30.24 853 25.19 2 35.5 71 -2.7 27.1
22:25 1024 30.24 853 25.19 1.8 35.2 73 -2.6 27.3
22:30 1024 30.24 853 25.19 1.7 35.1 71 -3.1 26.5
22:35 1024 30.24 853 25.19 2.5 36.4 68 -2.9 26.9
22:40 1024 30.24 854 25.22 2.6 36.6 68 -2.7 27.1
22:45 1024 30.24 853 25.19 2.3 36.1 69 -2.8 26.9
22:50 1024 30.24 853 25.19 2.2 35.9 70 -2.8 27
22:55 1024 30.24 853 25.19 1.9 35.4 71 -2.9 26.8
23:00 1024 30.24 853 25.19 1.8 35.2 71 -2.9 26.7
23:05 1024 30.24 853 25.19 1.6 34.9 72 -2.9 26.8
23:10 1024 30.24 853 25.19 1.5 34.7 72 -2.9 26.7
23:15 1024 30.24 853 25.19 1.5 34.7 71 -3.1 26.3
23:20 1024 30.24 853 25.19 1.8 35.2 70 -3.1 26.4
23:25 1024 30.24 853 25.19 1.7 35 71 -3 26.5
23:30 1024 30.24 853 25.19 1.4 34.5 72 -3.1 26.4
23:35 1024 30.24 854 25.22 1.3 34.3 72 -3.1 26.3
23:40 1024 30.24 854 25.22 1.4 34.6 70 -3.4 25.9
23:45 1024 30.24 854 25.22 1.8 35.2 67 -3.7 25.3
23:50 1024 30.24 854 25.22 2.2 35.9 66 -3.5 25.7
23:55 1024 30.24 854 25.22 2.1 35.9 67 -3.3 26
24:00 1024 30.24 854 25.22 1.8 35.3 68 -3.4 25.9